Buoy 33880

sailwx.info

Track history (hours):
 
Tides and Currents Weather Stations Pressure Air Temp Water Temp Dewpoint Dewpoint Depression Visibility Wind Speed Wind Dir Waves Ship Positions

Drifting buoy 33880

Last reported at 2016-Sep-01 02:00 UTC. Time now 2016-Sep-01 05:39 UTC.
Position S 42°04' W 042°60'.

Date/timePositionNaut miles runAvg speedWind from/ knotsBaromVisibWave heightAir tempDewpointWater temp
2016-Sep-01 02:00S 42°04' W 042°60'2 0.4
2016-Aug-31 22:00S 42°03' W 042°58'1 0.4
2016-Aug-31 19:00S 42°03' W 042°56'2 1.6
2016-Aug-31 18:00S 42°02' W 042°56'0 0.0
2016-Aug-31 17:00S 42°02' W 042°56'2 0.2
2016-Aug-31 07:00S 41°60' W 042°55'1 0.7
2016-Aug-31 05:00S 41°59' W 042°54'1 0.5
2016-Aug-31 04:00S 41°58' W 042°54'2 0.4
2016-Aug-30 22:00S 41°56' W 042°51'1 0.6
2016-Aug-30 21:00S 41°56' W 042°52'6 2.0
2016-Aug-30 18:00S 41°51' W 042°48'0 0.0
2016-Aug-30 12:00S 41°51' W 042°48'1 0.3
2016-Aug-30 10:00S 41°51' W 042°47'1 1.1
2016-Aug-30 09:00S 41°50' W 042°46'0 0.2
2016-Aug-30 08:00S 41°50' W 042°46'3 0.4
2016-Aug-30 01:00S 41°48' W 042°44'2 0.8
2016-Aug-29 23:00S 41°47' W 042°42'0 0.5
2016-Aug-29 22:00S 41°46' W 042°42'2 0.5
2016-Aug-29 18:00S 41°45' W 042°40'4 0.6
2016-Aug-29 12:00S 41°43' W 042°37'5 0.5
2016-Aug-29 02:00S 41°38' W 042°33'1 0.9
2016-Aug-29 01:00S 41°39' W 042°32'2 0.8
2016-Aug-28 22:00S 41°37' W 042°30'1 0.6
2016-Aug-28 21:00S 41°37' W 042°29'1 0.7
2016-Aug-28 19:00S 41°36' W 042°28'0 0.1
2016-Aug-28 18:00S 41°36' W 042°28'0 0.5
2016-Aug-28 17:00S 41°36' W 042°27'0 0.0
2016-Aug-28 16:00S 41°36' W 042°27'3 1.0
2016-Aug-28 13:00S 41°34' W 042°24'7 1.1
2016-Aug-28 06:00S 41°27' W 042°19'2 1.9
2016-Aug-28 05:00S 41°26' W 042°17'6 0.9
2016-Aug-27 23:00S 41°23' W 042°11'3 1.3
2016-Aug-27 21:00S 41°21' W 042°09'1 0.2
2016-Aug-27 18:00S 41°21' W 042°09'6 5.7
2016-Aug-27 17:00S 41°16' W 042°05'7 0.6
2016-Aug-27 06:00S 41°12' W 041°58'5 1.3
2016-Aug-27 02:00S 41°08' W 041°54'5 1.6
2016-Aug-26 23:00S 41°05' W 041°49'1 0.3
2016-Aug-26 21:00S 41°04' W 041°50'4 1.8
2016-Aug-26 19:00S 41°01' W 041°47'0 0.0
2016-Aug-26 18:00S 41°01' W 041°47'4 4.5
2016-Aug-26 17:00S 40°58' W 041°44'1 0.2
2016-Aug-26 12:00S 40°58' W 041°43'2 0.8
2016-Aug-26 10:00S 40°56' W 041°42'1 1.3
2016-Aug-26 09:00S 40°55' W 041°41'6 3.1
2016-Aug-26 07:00S 40°50' W 041°37'0 0.0
2016-Aug-26 06:00S 40°50' W 041°37'6 0.6
2016-Aug-25 20:00S 40°45' W 041°34'0 0.0
2016-Aug-25 19:00S 40°45' W 041°34'5 2.3
2016-Aug-25 17:00S 40°40' W 041°32'7 0.7
2016-Aug-25 07:00S 40°33' W 041°30'6 1.0
2016-Aug-25 01:00S 40°27' W 041°29'3 1.0
2016-Aug-24 22:00S 40°24' W 041°29'1 0.6
2016-Aug-24 20:00S 40°23' W 041°29'1 0.8
2016-Aug-24 19:00S 40°22' W 041°29'12 1.2
2016-Aug-24 09:00S 40°11' W 041°35'3 2.9
2016-Aug-24 08:00S 40°08' W 041°37'7 0.8
2016-Aug-23 23:00S 40°02' W 041°41'0 0.2
2016-Aug-23 22:00S 40°02' W 041°41'4 1.2
2016-Aug-23 19:00S 39°59' W 041°44'5 2.6
2016-Aug-23 17:00S 39°56' W 041°50'1 0.1
2016-Aug-23 13:00S 39°55' W 041°50'1 0.3
2016-Aug-23 10:00S 39°55' W 041°51'11 0.9
2016-Aug-22 22:00S 39°53' W 042°05'0 0.0
2016-Aug-22 21:00S 39°53' W 042°05'9 4.7
2016-Aug-22 19:00S 39°55' W 042°17'0 0.0
2016-Aug-22 18:00S 39°55' W 042°17'2 0.3
2016-Aug-22 11:00S 39°55' W 042°20'3 2.8
2016-Aug-22 10:00S 39°56' W 042°23'0 0.1
2016-Aug-22 09:00S 39°56' W 042°23'13 1.9
2016-Aug-22 02:00S 39°57' W 042°40'  
Track history (hours):
 
Tides and Currents Weather Stations Pressure Air Temp Water Temp Dewpoint Dewpoint Depression Visibility Wind Speed Wind Dir Waves Ship Positions

Drifting buoy 33880

Last reported at 2016-Sep-01 02:00 UTC. Time now 2016-Sep-01 05:39 UTC.
Position S 42°04' W 042°60'.

Date/timePositionNaut miles runAvg speedWind from/ knotsBaromVisibWave heightAir tempDewpointWater temp
2016-Sep-01 02:00S 42°04' W 042°60'2 0.4
2016-Aug-31 22:00S 42°03' W 042°58'1 0.4
2016-Aug-31 19:00S 42°03' W 042°56'2 1.6
2016-Aug-31 18:00S 42°02' W 042°56'0 0.0
2016-Aug-31 17:00S 42°02' W 042°56'2 0.2
2016-Aug-31 07:00S 41°60' W 042°55'1 0.7
2016-Aug-31 05:00S 41°59' W 042°54'1 0.5
2016-Aug-31 04:00S 41°58' W 042°54'2 0.4
2016-Aug-30 22:00S 41°56' W 042°51'1 0.6
2016-Aug-30 21:00S 41°56' W 042°52'6 2.0
2016-Aug-30 18:00S 41°51' W 042°48'0 0.0
2016-Aug-30 12:00S 41°51' W 042°48'1 0.3
2016-Aug-30 10:00S 41°51' W 042°47'1 1.1
2016-Aug-30 09:00S 41°50' W 042°46'0 0.2
2016-Aug-30 08:00S 41°50' W 042°46'3 0.4
2016-Aug-30 01:00S 41°48' W 042°44'2 0.8
2016-Aug-29 23:00S 41°47' W 042°42'0 0.5
2016-Aug-29 22:00S 41°46' W 042°42'2 0.5
2016-Aug-29 18:00S 41°45' W 042°40'4 0.6
2016-Aug-29 12:00S 41°43' W 042°37'5 0.5
2016-Aug-29 02:00S 41°38' W 042°33'1 0.9
2016-Aug-29 01:00S 41°39' W 042°32'2 0.8
2016-Aug-28 22:00S 41°37' W 042°30'1 0.6
2016-Aug-28 21:00S 41°37' W 042°29'1 0.7
2016-Aug-28 19:00S 41°36' W 042°28'0 0.1
2016-Aug-28 18:00S 41°36' W 042°28'0 0.5
2016-Aug-28 17:00S 41°36' W 042°27'0 0.0
2016-Aug-28 16:00S 41°36' W 042°27'3 1.0
2016-Aug-28 13:00S 41°34' W 042°24'7 1.1
2016-Aug-28 06:00S 41°27' W 042°19'2 1.9
2016-Aug-28 05:00S 41°26' W 042°17'6 0.9
2016-Aug-27 23:00S 41°23' W 042°11'3 1.3
2016-Aug-27 21:00S 41°21' W 042°09'1 0.2
2016-Aug-27 18:00S 41°21' W 042°09'6 5.7
2016-Aug-27 17:00S 41°16' W 042°05'7 0.6
2016-Aug-27 06:00S 41°12' W 041°58'5 1.3
2016-Aug-27 02:00S 41°08' W 041°54'5 1.6
2016-Aug-26 23:00S 41°05' W 041°49'1 0.3
2016-Aug-26 21:00S 41°04' W 041°50'4 1.8
2016-Aug-26 19:00S 41°01' W 041°47'0 0.0
2016-Aug-26 18:00S 41°01' W 041°47'4 4.5
2016-Aug-26 17:00S 40°58' W 041°44'1 0.2
2016-Aug-26 12:00S 40°58' W 041°43'2 0.8
2016-Aug-26 10:00S 40°56' W 041°42'1 1.3
2016-Aug-26 09:00S 40°55' W 041°41'6 3.1
2016-Aug-26 07:00S 40°50' W 041°37'0 0.0
2016-Aug-26 06:00S 40°50' W 041°37'6 0.6
2016-Aug-25 20:00S 40°45' W 041°34'0 0.0
2016-Aug-25 19:00S 40°45' W 041°34'5 2.3
2016-Aug-25 17:00S 40°40' W 041°32'7 0.7
2016-Aug-25 07:00S 40°33' W 041°30'6 1.0
2016-Aug-25 01:00S 40°27' W 041°29'3 1.0
2016-Aug-24 22:00S 40°24' W 041°29'1 0.6
2016-Aug-24 20:00S 40°23' W 041°29'1 0.8
2016-Aug-24 19:00S 40°22' W 041°29'12 1.2
2016-Aug-24 09:00S 40°11' W 041°35'3 2.9
2016-Aug-24 08:00S 40°08' W 041°37'7 0.8
2016-Aug-23 23:00S 40°02' W 041°41'0 0.2
2016-Aug-23 22:00S 40°02' W 041°41'4 1.2
2016-Aug-23 19:00S 39°59' W 041°44'5 2.6
2016-Aug-23 17:00S 39°56' W 041°50'1 0.1
2016-Aug-23 13:00S 39°55' W 041°50'1 0.3
2016-Aug-23 10:00S 39°55' W 041°51'11 0.9
2016-Aug-22 22:00S 39°53' W 042°05'0 0.0
2016-Aug-22 21:00S 39°53' W 042°05'9 4.7
2016-Aug-22 19:00S 39°55' W 042°17'0 0.0
2016-Aug-22 18:00S 39°55' W 042°17'2 0.3
2016-Aug-22 11:00S 39°55' W 042°20'3 2.8
2016-Aug-22 10:00S 39°56' W 042°23'0 0.1
2016-Aug-22 09:00S 39°56' W 042°23'13 1.9
2016-Aug-22 02:00S 39°57' W 042°40'  

Dump ship's entire track history